sensor_id;sensor_type;location;lat;lon;timestamp;pressure;altitude;pressure_sealevel;temperature;humidity
35989;BME280;22064;42.672;23.282;2023-04-22T00:01:42;94350.09;;;8.01;100.00
35989;BME280;22064;42.672;23.282;2023-04-22T00:04:08;94348.91;;;8.09;100.00
35989;BME280;22064;42.672;23.282;2023-04-22T00:06:34;94351.03;;;8.12;100.00
35989;BME280;22064;42.672;23.282;2023-04-22T00:09:01;94354.56;;;8.06;100.00
35989;BME280;22064;42.672;23.282;2023-04-22T00:11:27;94344.69;;;7.91;100.00
35989;BME280;22064;42.672;23.282;2023-04-22T00:13:53;94343.22;;;7.95;100.00
35989;BME280;22064;42.672;23.282;2023-04-22T00:16:19;94351.38;;;7.87;100.00
35989;BME280;22064;42.672;23.282;2023-04-22T00:18:46;94340.25;;;7.75;100.00
35989;BME280;22064;42.672;23.282;2023-04-22T00:21:12;94342.63;;;7.76;100.00
35989;BME280;22064;42.672;23.282;2023-04-22T00:23:37;94351.22;;;7.94;100.00
35989;BME280;22064;42.672;23.282;2023-04-22T00:26:03;94344.91;;;7.73;100.00
35989;BME280;22064;42.672;23.282;2023-04-22T00:28:29;94340.97;;;7.06;100.00
35989;BME280;22064;42.672;23.282;2023-04-22T00:30:55;94350.44;;;6.89;100.00
35989;BME280;22064;42.672;23.282;2023-04-22T00:33:23;94325.69;;;6.69;100.00
35989;BME280;22064;42.672;23.282;2023-04-22T00:35:49;94351.91;;;6.97;100.00
35989;BME280;22064;42.672;23.282;2023-04-22T00:38:15;94343.03;;;6.92;100.00
35989;BME280;22064;42.672;23.282;2023-04-22T00:40:41;94347.28;;;6.75;100.00
35989;BME280;22064;42.672;23.282;2023-04-22T00:43:07;94344.94;;;6.74;100.00
35989;BME280;22064;42.672;23.282;2023-04-22T00:45:35;94352.34;;;6.58;100.00
35989;BME280;22064;42.672;23.282;2023-04-22T00:48:01;94361.44;;;6.49;100.00
35989;BME280;22064;42.672;23.282;2023-04-22T00:50:27;94350.63;;;6.40;100.00
35989;BME280;22064;42.672;23.282;2023-04-22T00:52:54;94353.00;;;6.42;100.00
35989;BME280;22064;42.672;23.282;2023-04-22T00:55:20;94365.84;;;6.48;100.00
35989;BME280;22064;42.672;23.282;2023-04-22T00:57:48;94356.72;;;6.46;100.00
35989;BME280;22064;42.672;23.282;2023-04-22T01:00:16;94364.03;;;6.49;100.00
35989;BME280;22064;42.672;23.282;2023-04-22T01:02:42;94348.16;;;6.45;100.00
35989;BME280;22064;42.672;23.282;2023-04-22T01:05:08;94354.34;;;6.56;100.00
35989;BME280;22064;42.672;23.282;2023-04-22T01:07:35;94360.31;;;6.57;100.00
35989;BME280;22064;42.672;23.282;2023-04-22T01:10:02;94373.03;;;6.58;100.00
35989;BME280;22064;42.672;23.282;2023-04-22T01:12:28;94358.16;;;6.54;100.00
35989;BME280;22064;42.672;23.282;2023-04-22T01:14:55;94373.94;;;6.64;100.00
35989;BME280;22064;42.672;23.282;2023-04-22T01:17:21;94355.94;;;6.81;100.00
35989;BME280;22064;42.672;23.282;2023-04-22T01:19:49;94365.16;;;7.00;100.00
35989;BME280;22064;42.672;23.282;2023-04-22T01:22:15;94368.44;;;6.96;100.00
35989;BME280;22064;42.672;23.282;2023-04-22T01:24:41;94367.31;;;6.80;100.00
35989;BME280;22064;42.672;23.282;2023-04-22T01:27:07;94371.25;;;6.94;100.00
35989;BME280;22064;42.672;23.282;2023-04-22T01:29:35;94357.41;;;7.00;100.00
35989;BME280;22064;42.672;23.282;2023-04-22T01:32:02;94361.03;;;6.99;100.00
35989;BME280;22064;42.672;23.282;2023-04-22T01:34:29;94365.88;;;7.07;100.00
35989;BME280;22064;42.672;23.282;2023-04-22T01:36:56;94364.06;;;7.08;100.00
35989;BME280;22064;42.672;23.282;2023-04-22T01:39:22;94362.25;;;7.08;100.00
35989;BME280;22064;42.672;23.282;2023-04-22T01:41:48;94360.56;;;6.90;100.00
35989;BME280;22064;42.672;23.282;2023-04-22T01:44:14;94355.97;;;7.04;100.00
35989;BME280;22064;42.672;23.282;2023-04-22T01:46:40;94362.03;;;6.98;100.00
35989;BME280;22064;42.672;23.282;2023-04-22T01:49:06;94355.72;;;6.94;100.00
35989;BME280;22064;42.672;23.282;2023-04-22T01:51:32;94351.22;;;6.78;100.00
35989;BME280;22064;42.672;23.282;2023-04-22T01:53:58;94362.03;;;6.75;100.00
35989;BME280;22064;42.672;23.282;2023-04-22T01:56:24;94356.97;;;6.68;100.00
35989;BME280;22064;42.672;23.282;2023-04-22T01:58:50;94346.38;;;6.69;100.00
35989;BME280;22064;42.672;23.282;2023-04-22T02:01:15;94354.13;;;6.69;100.00
35989;BME280;22064;42.672;23.282;2023-04-22T02:03:41;94354.59;;;6.66;100.00
35989;BME280;22064;42.672;23.282;2023-04-22T02:06:09;94357.97;;;6.67;100.00
35989;BME280;22064;42.672;23.282;2023-04-22T02:08:35;94350.56;;;6.70;100.00
35989;BME280;22064;42.672;23.282;2023-04-22T02:11:01;94362.59;;;6.77;100.00
35989;BME280;22064;42.672;23.282;2023-04-22T02:13:35;94352.47;;;6.75;100.00
35989;BME280;22064;42.672;23.282;2023-04-22T02:16:01;94355.28;;;6.85;100.00
35989;BME280;22064;42.672;23.282;2023-04-22T02:18:26;94348.53;;;6.84;100.00
35989;BME280;22064;42.672;23.282;2023-04-22T02:20:52;94356.28;;;6.96;100.00
35989;BME280;22064;42.672;23.282;2023-04-22T02:23:18;94358.75;;;6.91;100.00
35989;BME280;22064;42.672;23.282;2023-04-22T02:25:51;94357.31;;;6.71;100.00
35989;BME280;22064;42.672;23.282;2023-04-22T02:28:18;94364.94;;;6.55;100.00
35989;BME280;22064;42.672;23.282;2023-04-22T02:30:44;94355.22;;;6.38;100.00
35989;BME280;22064;42.672;23.282;2023-04-22T02:33:10;94359.94;;;6.41;100.00
35989;BME280;22064;42.672;23.282;2023-04-22T02:35:36;94363.00;;;6.50;100.00
35989;BME280;22064;42.672;23.282;2023-04-22T02:38:02;94360.31;;;6.45;100.00
35989;BME280;22064;42.672;23.282;2023-04-22T02:40:28;94362.78;;;6.40;100.00
35989;BME280;22064;42.672;23.282;2023-04-22T02:42:54;94370.09;;;6.43;100.00
35989;BME280;22064;42.672;23.282;2023-04-22T02:45:21;94376.28;;;6.54;100.00
35989;BME280;22064;42.672;23.282;2023-04-22T02:47:47;94368.41;;;6.60;100.00
35989;BME280;22064;42.672;23.282;2023-04-22T02:50:13;94369.91;;;6.68;100.00
35989;BME280;22064;42.672;23.282;2023-04-22T02:52:39;94370.81;;;6.74;100.00
35989;BME280;22064;42.672;23.282;2023-04-22T02:55:06;94369.66;;;6.69;100.00
35989;BME280;22064;42.672;23.282;2023-04-22T02:57:32;94382.25;;;6.66;100.00
35989;BME280;22064;42.672;23.282;2023-04-22T02:59:58;94381.59;;;6.70;100.00
35989;BME280;22064;42.672;23.282;2023-04-22T03:02:24;94382.72;;;6.63;100.00
35989;BME280;22064;42.672;23.282;2023-04-22T03:05:09;94373.13;;;6.63;100.00
35989;BME280;22064;42.672;23.282;2023-04-22T03:07:35;94380.25;;;6.80;100.00
35989;BME280;22064;42.672;23.282;2023-04-22T03:10:01;94366.41;;;6.74;100.00
35989;BME280;22064;42.672;23.282;2023-04-22T03:12:27;94382.06;;;6.91;100.00
35989;BME280;22064;42.672;23.282;2023-04-22T03:14:53;94371.25;;;6.94;100.00
35989;BME280;22064;42.672;23.282;2023-04-22T03:17:21;94375.19;;;6.97;100.00
35989;BME280;22064;42.672;23.282;2023-04-22T03:19:47;94373.63;;;6.96;100.00
35989;BME280;22064;42.672;23.282;2023-04-22T03:22:13;94377.91;;;7.02;100.00
35989;BME280;22064;42.672;23.282;2023-04-22T03:24:40;94380.72;;;7.12;100.00
35989;BME280;22064;42.672;23.282;2023-04-22T03:27:09;94372.50;;;7.15;100.00
35989;BME280;22064;42.672;23.282;2023-04-22T03:29:34;94371.59;;;7.09;100.00
35989;BME280;22064;42.672;23.282;2023-04-22T03:32:00;94385.75;;;7.30;100.00
35989;BME280;22064;42.672;23.282;2023-04-22T03:34:26;94385.19;;;7.40;100.00
35989;BME280;22064;42.672;23.282;2023-04-22T03:36:52;94387.88;;;7.45;100.00
35989;BME280;22064;42.672;23.282;2023-04-22T03:39:18;94397.34;;;7.51;100.00
35989;BME280;22064;42.672;23.282;2023-04-22T03:41:45;94384.38;;;7.51;100.00
35989;BME280;22064;42.672;23.282;2023-04-22T03:44:11;94397.09;;;7.64;100.00
35989;BME280;22064;42.672;23.282;2023-04-22T03:46:37;94395.84;;;7.67;100.00
35989;BME280;22064;42.672;23.282;2023-04-22T03:49:14;94398.06;;;7.75;100.00
35989;BME280;22064;42.672;23.282;2023-04-22T03:51:41;94392.88;;;7.75;100.00
35989;BME280;22064;42.672;23.282;2023-04-22T03:54:11;94400.28;;;7.95;100.00
35989;BME280;22064;42.672;23.282;2023-04-22T03:56:43;94406.84;;;8.15;100.00
35989;BME280;22064;42.672;23.282;2023-04-22T03:59:09;94402.16;;;8.28;100.00
35989;BME280;22064;42.672;23.282;2023-04-22T04:01:35;94413.34;;;8.58;100.00
35989;BME280;22064;42.672;23.282;2023-04-22T04:04:04;94417.72;;;8.91;100.00
35989;BME280;22064;42.672;23.282;2023-04-22T04:06:53;94413.72;;;9.17;100.00
35989;BME280;22064;42.672;23.282;2023-04-22T04:09:19;94414.38;;;9.46;100.00
35989;BME280;22064;42.672;23.282;2023-04-22T04:11:45;94400.41;;;9.69;100.00
35989;BME280;22064;42.672;23.282;2023-04-22T04:14:12;94408.78;;;9.98;100.00
35989;BME280;22064;42.672;23.282;2023-04-22T04:16:42;94417.78;;;10.34;100.00
35989;BME280;22064;42.672;23.282;2023-04-22T04:19:14;94421.84;;;10.79;100.00
35989;BME280;22064;42.672;23.282;2023-04-22T04:21:40;94417.94;;;11.14;100.00
35989;BME280;22064;42.672;23.282;2023-04-22T04:24:07;94418.16;;;11.50;100.00
35989;BME280;22064;42.672;23.282;2023-04-22T04:26:37;94413.81;;;11.71;100.00
35989;BME280;22064;42.672;23.282;2023-04-22T04:29:14;94423.94;;;11.57;100.00
35989;BME280;22064;42.672;23.282;2023-04-22T04:31:45;94422.63;;;11.12;100.00
35989;BME280;22064;42.672;23.282;2023-04-22T04:34:11;94418.31;;;11.28;100.00
35989;BME280;22064;42.672;23.282;2023-04-22T04:36:37;94431.56;;;10.89;100.00
35989;BME280;22064;42.672;23.282;2023-04-22T04:39:17;94432.66;;;10.66;100.00
35989;BME280;22064;42.672;23.282;2023-04-22T04:41:44;94428.84;;;10.03;100.00
35989;BME280;22064;42.672;23.282;2023-04-22T04:44:10;94445.41;;;9.53;100.00
35989;BME280;22064;42.672;23.282;2023-04-22T04:46:38;94434.13;;;8.91;100.00
35989;BME280;22064;42.672;23.282;2023-04-22T04:49:06;94448.16;;;8.62;100.00
35989;BME280;22064;42.672;23.282;2023-04-22T04:51:40;94451.63;;;8.50;100.00
35989;BME280;22064;42.672;23.282;2023-04-22T04:54:06;94450.97;;;8.43;100.00
35989;BME280;22064;42.672;23.282;2023-04-22T04:56:36;94458.59;;;8.78;100.00
35989;BME280;22064;42.672;23.282;2023-04-22T04:59:03;94453.00;;;9.04;100.00
35989;BME280;22064;42.672;23.282;2023-04-22T05:01:30;94455.13;;;9.23;100.00
35989;BME280;22064;42.672;23.282;2023-04-22T05:04:01;94459.16;;;9.53;100.00
35989;BME280;22064;42.672;23.282;2023-04-22T05:06:27;94452.44;;;9.74;100.00
35989;BME280;22064;42.672;23.282;2023-04-22T05:08:59;94452.75;;;10.00;100.00
35989;BME280;22064;42.672;23.282;2023-04-22T05:11:25;94455.59;;;10.20;100.00
35989;BME280;22064;42.672;23.282;2023-04-22T05:13:52;94453.41;;;10.12;100.00
35989;BME280;22064;42.672;23.282;2023-04-22T05:16:25;94453.78;;;10.21;100.00
35989;BME280;22064;42.672;23.282;2023-04-22T05:18:51;94459.56;;;10.50;100.00
35989;BME280;22064;42.672;23.282;2023-04-22T05:21:17;94455.50;;;10.59;100.00
35989;BME280;22064;42.672;23.282;2023-04-22T05:23:44;94469.50;;;10.53;100.00
35989;BME280;22064;42.672;23.282;2023-04-22T05:26:10;94462.06;;;10.39;100.00
35989;BME280;22064;42.672;23.282;2023-04-22T05:28:39;94471.56;;;10.51;100.00
35989;BME280;22064;42.672;23.282;2023-04-22T05:31:05;94457.41;;;10.42;100.00
35989;BME280;22064;42.672;23.282;2023-04-22T05:33:31;94468.28;;;10.60;100.00
35989;BME280;22064;42.672;23.282;2023-04-22T05:35:58;94471.03;;;10.76;100.00
35989;BME280;22064;42.672;23.282;2023-04-22T05:38:24;94475.06;;;10.89;100.00
35989;BME280;22064;42.672;23.282;2023-04-22T05:40:51;94482.38;;;10.64;100.00
35989;BME280;22064;42.672;23.282;2023-04-22T05:43:18;94473.78;;;10.91;100.00
35989;BME280;22064;42.672;23.282;2023-04-22T05:45:50;94476.28;;;10.81;100.00
35989;BME280;22064;42.672;23.282;2023-04-22T05:48:16;94472.69;;;10.33;100.00
35989;BME280;22064;42.672;23.282;2023-04-22T05:50:53;94480.19;;;10.29;100.00
35989;BME280;22064;42.672;23.282;2023-04-22T05:53:19;94472.88;;;10.26;100.00
35989;BME280;22064;42.672;23.282;2023-04-22T05:55:45;94472.72;;;10.60;100.00
35989;BME280;22064;42.672;23.282;2023-04-22T05:58:12;94478.38;;;10.84;100.00
35989;BME280;22064;42.672;23.282;2023-04-22T06:00:50;94470.19;;;10.70;100.00
35989;BME280;22064;42.672;23.282;2023-04-22T06:03:36;94466.25;;;10.95;100.00
35989;BME280;22064;42.672;23.282;2023-04-22T06:06:03;94467.09;;;11.00;100.00
35989;BME280;22064;42.672;23.282;2023-04-22T06:08:30;94469.66;;;11.32;100.00
35989;BME280;22064;42.672;23.282;2023-04-22T06:10:56;94475.97;;;11.42;100.00
35989;BME280;22064;42.672;23.282;2023-04-22T06:13:24;94461.50;;;11.56;100.00
35989;BME280;22064;42.672;23.282;2023-04-22T06:15:50;94457.78;;;11.52;100.00
35989;BME280;22064;42.672;23.282;2023-04-22T06:18:16;94452.38;;;11.21;100.00
35989;BME280;22064;42.672;23.282;2023-04-22T06:20:42;94460.19;;;11.21;100.00
35989;BME280;22064;42.672;23.282;2023-04-22T06:23:07;94466.31;;;11.00;100.00
35989;BME280;22064;42.672;23.282;2023-04-22T06:25:33;94466.19;;;10.90;100.00
35989;BME280;22064;42.672;23.282;2023-04-22T06:27:59;94473.78;;;10.64;100.00
35989;BME280;22064;42.672;23.282;2023-04-22T06:30:26;94471.50;;;11.00;100.00
35989;BME280;22064;42.672;23.282;2023-04-22T06:32:52;94479.69;;;11.14;100.00
35989;BME280;22064;42.672;23.282;2023-04-22T06:35:20;94472.63;;;11.09;100.00
35989;BME280;22064;42.672;23.282;2023-04-22T06:37:47;94467.47;;;10.87;100.00
35989;BME280;22064;42.672;23.282;2023-04-22T06:40:14;94473.00;;;10.91;100.00
35989;BME280;22064;42.672;23.282;2023-04-22T06:43:04;94469.84;;;10.89;100.00
35989;BME280;22064;42.672;23.282;2023-04-22T06:45:33;94449.00;;;10.89;100.00
35989;BME280;22064;42.672;23.282;2023-04-22T06:48:31;94471.91;;;10.86;100.00
35989;BME280;22064;42.672;23.282;2023-04-22T06:51:26;94462.28;;;11.24;100.00
35989;BME280;22064;42.672;23.282;2023-04-22T06:53:52;94472.56;;;11.78;100.00
35989;BME280;22064;42.672;23.282;2023-04-22T06:56:18;94479.50;;;12.00;100.00
35989;BME280;22064;42.672;23.282;2023-04-22T06:58:44;94468.50;;;11.98;100.00
35989;BME280;22064;42.672;23.282;2023-04-22T07:01:10;94482.75;;;12.28;100.00
35989;BME280;22064;42.672;23.282;2023-04-22T07:03:38;94475.50;;;12.55;100.00
35989;BME280;22064;42.672;23.282;2023-04-22T07:06:08;94474.50;;;12.92;100.00
35989;BME280;22064;42.672;23.282;2023-04-22T07:08:34;94480.28;;;13.09;100.00
35989;BME280;22064;42.672;23.282;2023-04-22T07:11:01;94481.84;;;12.85;100.00
35989;BME280;22064;42.672;23.282;2023-04-22T07:13:33;94484.97;;;12.87;100.00
35989;BME280;22064;42.672;23.282;2023-04-22T07:16:00;94478.72;;;12.05;100.00
35989;BME280;22064;42.672;23.282;2023-04-22T07:18:27;94486.19;;;11.86;100.00
35989;BME280;22064;42.672;23.282;2023-04-22T07:20:54;94480.91;;;11.75;100.00
35989;BME280;22064;42.672;23.282;2023-04-22T07:23:20;94485.06;;;11.76;100.00
35989;BME280;22064;42.672;23.282;2023-04-22T07:25:46;94483.00;;;11.78;100.00
35989;BME280;22064;42.672;23.282;2023-04-22T07:28:11;94483.66;;;12.01;100.00
35989;BME280;22064;42.672;23.282;2023-04-22T07:30:37;94489.94;;;12.00;100.00
35989;BME280;22064;42.672;23.282;2023-04-22T07:33:03;94482.19;;;12.25;100.00
35989;BME280;22064;42.672;23.282;2023-04-22T07:35:29;94473.91;;;12.44;100.00
35989;BME280;22064;42.672;23.282;2023-04-22T07:37:56;94486.00;;;12.86;100.00
35989;BME280;22064;42.672;23.282;2023-04-22T07:40:21;94469.75;;;12.53;100.00
35989;BME280;22064;42.672;23.282;2023-04-22T07:42:47;94486.22;;;12.64;100.00
35989;BME280;22064;42.672;23.282;2023-04-22T07:45:13;94488.13;;;13.04;100.00
35989;BME280;22064;42.672;23.282;2023-04-22T07:47:39;94482.94;;;13.35;100.00
35989;BME280;22064;42.672;23.282;2023-04-22T07:50:06;94473.22;;;13.66;100.00
35989;BME280;22064;42.672;23.282;2023-04-22T07:52:32;94468.69;;;13.97;100.00
35989;BME280;22064;42.672;23.282;2023-04-22T07:54:58;94481.69;;;14.28;100.00
35989;BME280;22064;42.672;23.282;2023-04-22T07:57:24;94476.88;;;14.45;100.00
35989;BME280;22064;42.672;23.282;2023-04-22T07:59:50;94479.13;;;14.13;100.00
35989;BME280;22064;42.672;23.282;2023-04-22T08:02:16;94475.63;;;13.37;100.00
35989;BME280;22064;42.672;23.282;2023-04-22T08:04:42;94478.41;;;13.81;100.00
35989;BME280;22064;42.672;23.282;2023-04-22T08:07:08;94469.00;;;13.80;100.00
35989;BME280;22064;42.672;23.282;2023-04-22T08:09:34;94461.69;;;13.72;100.00
35989;BME280;22064;42.672;23.282;2023-04-22T08:12:00;94467.81;;;14.17;100.00
35989;BME280;22064;42.672;23.282;2023-04-22T08:14:27;94477.19;;;13.38;100.00
35989;BME280;22064;42.672;23.282;2023-04-22T08:16:53;94466.69;;;13.58;100.00
35989;BME280;22064;42.672;23.282;2023-04-22T08:19:19;94464.00;;;13.94;100.00
35989;BME280;22064;42.672;23.282;2023-04-22T08:21:45;94459.59;;;14.49;100.00
35989;BME280;22064;42.672;23.282;2023-04-22T08:24:13;94455.22;;;14.84;90.57
35989;BME280;22064;42.672;23.282;2023-04-22T08:26:39;94459.94;;;14.82;84.66
35989;BME280;22064;42.672;23.282;2023-04-22T08:29:05;94459.94;;;14.82;81.40
35989;BME280;22064;42.672;23.282;2023-04-22T08:31:33;94457.41;;;14.67;82.13
35989;BME280;22064;42.672;23.282;2023-04-22T08:33:59;94455.50;;;14.23;87.52
35989;BME280;22064;42.672;23.282;2023-04-22T08:36:25;94457.94;;;14.09;92.88
35989;BME280;22064;42.672;23.282;2023-04-22T08:38:52;94448.84;;;13.76;95.24
35989;BME280;22064;42.672;23.282;2023-04-22T08:41:20;94451.72;;;13.84;96.71
35989;BME280;22064;42.672;23.282;2023-04-22T08:43:46;94443.00;;;14.04;96.61
35989;BME280;22064;42.672;23.282;2023-04-22T08:46:13;94438.19;;;14.32;91.02
35989;BME280;22064;42.672;23.282;2023-04-22T08:48:42;94446.38;;;14.70;87.67
35989;BME280;22064;42.672;23.282;2023-04-22T08:51:08;94433.53;;;14.24;89.51
35989;BME280;22064;42.672;23.282;2023-04-22T08:53:36;94435.06;;;14.30;88.32
35989;BME280;22064;42.672;23.282;2023-04-22T08:56:02;94430.44;;;14.01;94.90
35989;BME280;22064;42.672;23.282;2023-04-22T08:58:28;94417.59;;;14.65;90.10
35989;BME280;22064;42.672;23.282;2023-04-22T09:00:55;94423.72;;;15.23;84.83
35989;BME280;22064;42.672;23.282;2023-04-22T09:03:21;94426.22;;;15.68;75.17
35989;BME280;22064;42.672;23.282;2023-04-22T09:05:50;94422.97;;;15.18;69.04
35989;BME280;22064;42.672;23.282;2023-04-22T09:08:18;94420.00;;;14.95;75.76
35989;BME280;22064;42.672;23.282;2023-04-22T09:10:44;94419.31;;;15.14;71.94
35989;BME280;22064;42.672;23.282;2023-04-22T09:13:12;94427.03;;;14.66;69.99
35989;BME280;22064;42.672;23.282;2023-04-22T09:15:39;94417.88;;;14.97;68.15
35989;BME280;22064;42.672;23.282;2023-04-22T09:18:08;94415.56;;;14.91;64.48
35989;BME280;22064;42.672;23.282;2023-04-22T09:20:34;94413.53;;;15.17;63.08
35989;BME280;22064;42.672;23.282;2023-04-22T09:23:03;94419.81;;;15.45;60.35
35989;BME280;22064;42.672;23.282;2023-04-22T09:25:33;94420.06;;;14.85;58.04
35989;BME280;22064;42.672;23.282;2023-04-22T09:28:01;94420.16;;;14.75;58.82
35989;BME280;22064;42.672;23.282;2023-04-22T09:30:33;94406.47;;;14.83;59.61
35989;BME280;22064;42.672;23.282;2023-04-22T09:33:00;94407.97;;;15.53;58.46
35989;BME280;22064;42.672;23.282;2023-04-22T09:35:37;94393.81;;;16.02;55.02
35989;BME280;22064;42.672;23.282;2023-04-22T09:38:06;94389.41;;;16.54;53.24
35989;BME280;22064;42.672;23.282;2023-04-22T09:40:33;94399.81;;;16.83;51.99
35989;BME280;22064;42.672;23.282;2023-04-22T09:43:01;94390.03;;;15.60;56.25
35989;BME280;22064;42.672;23.282;2023-04-22T09:45:37;94407.97;;;16.01;55.56
35989;BME280;22064;42.672;23.282;2023-04-22T09:50:42;94399.09;;;15.73;56.62
35989;BME280;22064;42.672;23.282;2023-04-22T09:53:10;94386.38;;;15.85;53.89
35989;BME280;22064;42.672;23.282;2023-04-22T09:55:39;94392.22;;;15.53;52.67
35989;BME280;22064;42.672;23.282;2023-04-22T09:58:08;94392.97;;;15.82;52.12
35989;BME280;22064;42.672;23.282;2023-04-22T10:00:39;94372.59;;;15.98;52.01
35989;BME280;22064;42.672;23.282;2023-04-22T10:03:05;94393.63;;;16.55;51.77
35989;BME280;22064;42.672;23.282;2023-04-22T10:05:32;94394.34;;;16.60;50.03
35989;BME280;22064;42.672;23.282;2023-04-22T10:08:04;94384.25;;;16.68;53.93
35989;BME280;22064;42.672;23.282;2023-04-22T10:10:30;94376.53;;;16.76;53.01
35989;BME280;22064;42.672;23.282;2023-04-22T10:12:56;94379.69;;;16.92;51.15
35989;BME280;22064;42.672;23.282;2023-04-22T10:15:24;94375.50;;;16.72;50.45
35989;BME280;22064;42.672;23.282;2023-04-22T10:17:51;94350.66;;;16.46;50.15
35989;BME280;22064;42.672;23.282;2023-04-22T10:20:19;94371.09;;;16.87;49.97
35989;BME280;22064;42.672;23.282;2023-04-22T10:22:46;94366.25;;;16.94;48.90
35989;BME280;22064;42.672;23.282;2023-04-22T10:25:20;94364.91;;;16.96;48.72
35989;BME280;22064;42.672;23.282;2023-04-22T10:28:04;94356.63;;;17.03;48.68
35989;BME280;22064;42.672;23.282;2023-04-22T10:30:32;94361.03;;;17.07;46.61
35989;BME280;22064;42.672;23.282;2023-04-22T10:33:37;94362.34;;;17.24;44.79
35989;BME280;22064;42.672;23.282;2023-04-22T10:36:16;94369.75;;;17.36;43.88
35989;BME280;22064;42.672;23.282;2023-04-22T10:41:15;94355.44;;;17.69;43.15
35989;BME280;22064;42.672;23.282;2023-04-22T10:43:42;94357.59;;;17.67;43.27
35989;BME280;22064;42.672;23.282;2023-04-22T10:49:07;94362.72;;;17.31;45.48
35989;BME280;22064;42.672;23.282;2023-04-22T10:51:41;94353.13;;;17.54;44.39
35989;BME280;22064;42.672;23.282;2023-04-22T10:57:20;94356.13;;;18.16;42.93
35989;BME280;22064;42.672;23.282;2023-04-22T10:59:53;94352.19;;;18.28;41.82
35989;BME280;22064;42.672;23.282;2023-04-22T11:02:20;94346.69;;;18.38;41.27
35989;BME280;22064;42.672;23.282;2023-04-22T11:04:47;94344.44;;;18.31;40.70
35989;BME280;22064;42.672;23.282;2023-04-22T11:07:14;94351.91;;;18.52;41.08
35989;BME280;22064;42.672;23.282;2023-04-22T11:09:46;94349.50;;;18.78;40.51
35989;BME280;22064;42.672;23.282;2023-04-22T11:15:08;94347.69;;;18.28;40.84
35989;BME280;22064;42.672;23.282;2023-04-22T11:17:36;94351.41;;;18.63;40.20
35989;BME280;22064;42.672;23.282;2023-04-22T11:20:05;94352.91;;;18.78;39.65
35989;BME280;22064;42.672;23.282;2023-04-22T11:22:41;94362.91;;;18.31;39.05
35989;BME280;22064;42.672;23.282;2023-04-22T11:25:08;94340.91;;;17.72;41.27
35989;BME280;22064;42.672;23.282;2023-04-22T11:27:37;94362.28;;;17.98;42.03
35989;BME280;22064;42.672;23.282;2023-04-22T11:30:12;94368.47;;;18.30;41.50
35989;BME280;22064;42.672;23.282;2023-04-22T11:32:44;94380.63;;;18.17;43.34
35989;BME280;22064;42.672;23.282;2023-04-22T11:35:12;94384.81;;;18.18;44.62
35989;BME280;22064;42.672;23.282;2023-04-22T11:37:46;94374.94;;;18.10;45.84
35989;BME280;22064;42.672;23.282;2023-04-22T11:40:15;94377.84;;;17.53;47.69
35989;BME280;22064;42.672;23.282;2023-04-22T11:42:42;94409.06;;;17.60;47.92
35989;BME280;22064;42.672;23.282;2023-04-22T11:45:08;94389.16;;;17.53;46.90
35989;BME280;22064;42.672;23.282;2023-04-22T11:47:34;94384.34;;;17.28;46.88
35989;BME280;22064;42.672;23.282;2023-04-22T11:50:03;94404.75;;;17.50;47.23
35989;BME280;22064;42.672;23.282;2023-04-22T11:55:24;94419.34;;;16.96;48.85
35989;BME280;22064;42.672;23.282;2023-04-22T11:58:15;94388.44;;;17.20;48.93
35989;BME280;22064;42.672;23.282;2023-04-22T12:00:49;94412.19;;;17.48;48.48
35989;BME280;22064;42.672;23.282;2023-04-22T12:03:20;94409.56;;;17.48;48.69
35989;BME280;22064;42.672;23.282;2023-04-22T12:05:51;94419.97;;;17.39;49.41
35989;BME280;22064;42.672;23.282;2023-04-22T12:08:19;94416.38;;;17.49;49.79
35989;BME280;22064;42.672;23.282;2023-04-22T12:10:48;94423.75;;;17.80;49.62
35989;BME280;22064;42.672;23.282;2023-04-22T12:13:22;94428.25;;;17.33;50.46
35989;BME280;22064;42.672;23.282;2023-04-22T12:15:52;94435.25;;;17.84;50.08
35989;BME280;22064;42.672;23.282;2023-04-22T12:23:29;94422.56;;;16.12;58.05
35989;BME280;22064;42.672;23.282;2023-04-22T12:25:59;94425.63;;;16.81;55.56
35989;BME280;22064;42.672;23.282;2023-04-22T12:28:25;94434.06;;;16.78;54.44
35989;BME280;22064;42.672;23.282;2023-04-22T12:30:51;94434.03;;;17.16;52.76
35989;BME280;22064;42.672;23.282;2023-04-22T12:33:17;94419.56;;;16.99;54.06
35989;BME280;22064;42.672;23.282;2023-04-22T12:35:42;94419.19;;;16.68;55.00
35989;BME280;22064;42.672;23.282;2023-04-22T12:38:11;94418.22;;;16.83;54.96
35989;BME280;22064;42.672;23.282;2023-04-22T12:40:37;94420.25;;;17.38;52.51
35989;BME280;22064;42.672;23.282;2023-04-22T12:43:03;94424.81;;;17.78;50.45
35989;BME280;22064;42.672;23.282;2023-04-22T12:45:30;94409.81;;;17.33;50.94
35989;BME280;22064;42.672;23.282;2023-04-22T12:47:56;94417.59;;;17.84;50.67
35989;BME280;22064;42.672;23.282;2023-04-22T12:50:22;94420.34;;;17.79;52.54
35989;BME280;22064;42.672;23.282;2023-04-22T12:52:48;94408.91;;;17.70;51.35
35989;BME280;22064;42.672;23.282;2023-04-22T12:55:14;94411.75;;;17.41;52.53
35989;BME280;22064;42.672;23.282;2023-04-22T12:57:40;94399.50;;;17.50;52.25
35989;BME280;22064;42.672;23.282;2023-04-22T13:00:06;94389.78;;;17.64;50.60
35989;BME280;22064;42.672;23.282;2023-04-22T13:02:45;94406.72;;;17.58;49.06
35989;BME280;22064;42.672;23.282;2023-04-22T13:05:11;94410.59;;;17.47;48.67
35989;BME280;22064;42.672;23.282;2023-04-22T13:07:40;94416.56;;;17.52;49.85
35989;BME280;22064;42.672;23.282;2023-04-22T13:10:11;94410.00;;;17.03;51.06
35989;BME280;22064;42.672;23.282;2023-04-22T13:12:38;94403.31;;;17.11;51.61
35989;BME280;22064;42.672;23.282;2023-04-22T13:15:05;94396.78;;;17.08;51.63